sensor_id;sensor_type;location;lat;lon;timestamp;P1;durP1;ratioP1;P2;durP2;ratioP2
92;SDS011;16232;48.800;9.002;2023-04-03T00:01:21;3.90;;;2.60;;
92;SDS011;16232;48.800;9.002;2023-04-03T00:03:48;4.17;;;2.80;;
92;SDS011;16232;48.800;9.002;2023-04-03T00:06:18;2.70;;;2.50;;
92;SDS011;16232;48.800;9.002;2023-04-03T00:08:45;3.83;;;2.63;;
92;SDS011;16232;48.800;9.002;2023-04-03T00:11:13;4.50;;;2.90;;
92;SDS011;16232;48.800;9.002;2023-04-03T00:13:41;4.10;;;2.87;;
92;SDS011;16232;48.800;9.002;2023-04-03T00:16:09;4.50;;;3.10;;
92;SDS011;16232;48.800;9.002;2023-04-03T00:18:37;4.63;;;3.03;;
92;SDS011;16232;48.800;9.002;2023-04-03T00:21:05;3.97;;;2.67;;
92;SDS011;16232;48.800;9.002;2023-04-03T00:23:34;3.87;;;2.90;;
92;SDS011;16232;48.800;9.002;2023-04-03T00:26:02;3.40;;;2.70;;
92;SDS011;16232;48.800;9.002;2023-04-03T00:28:29;4.90;;;2.80;;
92;SDS011;16232;48.800;9.002;2023-04-03T00:30:57;3.07;;;2.73;;
92;SDS011;16232;48.800;9.002;2023-04-03T00:33:24;3.37;;;2.97;;
92;SDS011;16232;48.800;9.002;2023-04-03T00:35:52;3.87;;;3.10;;
92;SDS011;16232;48.800;9.002;2023-04-03T00:38:19;3.57;;;3.07;;
92;SDS011;16232;48.800;9.002;2023-04-03T00:40:48;4.37;;;3.00;;
92;SDS011;16232;48.800;9.002;2023-04-03T00:43:21;3.27;;;2.63;;
92;SDS011;16232;48.800;9.002;2023-04-03T00:45:49;6.57;;;2.90;;
92;SDS011;16232;48.800;9.002;2023-04-03T00:48:17;3.20;;;2.90;;
92;SDS011;16232;48.800;9.002;2023-04-03T00:50:45;4.23;;;3.20;;
92;SDS011;16232;48.800;9.002;2023-04-03T00:53:14;5.30;;;2.50;;
92;SDS011;16232;48.800;9.002;2023-04-03T00:55:43;4.23;;;3.10;;
92;SDS011;16232;48.800;9.002;2023-04-03T00:58:12;4.80;;;3.13;;
92;SDS011;16232;48.800;9.002;2023-04-03T01:00:42;3.40;;;2.87;;
92;SDS011;16232;48.800;9.002;2023-04-03T01:03:10;4.80;;;3.07;;
92;SDS011;16232;48.800;9.002;2023-04-03T01:05:37;4.27;;;3.13;;
92;SDS011;16232;48.800;9.002;2023-04-03T01:08:05;3.47;;;3.17;;
92;SDS011;16232;48.800;9.002;2023-04-03T01:10:33;3.07;;;2.77;;
92;SDS011;16232;48.800;9.002;2023-04-03T01:13:00;4.63;;;3.07;;
92;SDS011;16232;48.800;9.002;2023-04-03T01:15:29;3.77;;;3.13;;
92;SDS011;16232;48.800;9.002;2023-04-03T01:18:00;4.10;;;3.23;;
92;SDS011;16232;48.800;9.002;2023-04-03T01:20:43;3.30;;;2.90;;
92;SDS011;16232;48.800;9.002;2023-04-03T01:23:16;3.80;;;2.90;;
92;SDS011;16232;48.800;9.002;2023-04-03T01:25:46;3.17;;;2.87;;
92;SDS011;16232;48.800;9.002;2023-04-03T01:28:15;4.07;;;3.27;;
92;SDS011;16232;48.800;9.002;2023-04-03T01:30:45;4.07;;;2.67;;
92;SDS011;16232;48.800;9.002;2023-04-03T01:33:16;3.47;;;3.13;;
92;SDS011;16232;48.800;9.002;2023-04-03T01:35:43;2.87;;;2.67;;
92;SDS011;16232;48.800;9.002;2023-04-03T01:38:11;6.80;;;3.13;;
92;SDS011;16232;48.800;9.002;2023-04-03T01:40:38;4.03;;;3.17;;
92;SDS011;16232;48.800;9.002;2023-04-03T01:43:06;4.20;;;3.00;;
92;SDS011;16232;48.800;9.002;2023-04-03T01:45:33;4.40;;;3.50;;
92;SDS011;16232;48.800;9.002;2023-04-03T01:48:01;3.40;;;2.57;;
92;SDS011;16232;48.800;9.002;2023-04-03T01:50:30;3.43;;;3.00;;
92;SDS011;16232;48.800;9.002;2023-04-03T01:52:57;4.13;;;3.30;;
92;SDS011;16232;48.800;9.002;2023-04-03T01:55:24;4.43;;;3.33;;
92;SDS011;16232;48.800;9.002;2023-04-03T01:57:52;3.30;;;3.00;;
92;SDS011;16232;48.800;9.002;2023-04-03T02:00:20;4.00;;;2.80;;
92;SDS011;16232;48.800;9.002;2023-04-03T02:02:47;3.10;;;2.80;;
92;SDS011;16232;48.800;9.002;2023-04-03T02:05:15;4.63;;;3.13;;
92;SDS011;16232;48.800;9.002;2023-04-03T02:07:44;3.40;;;3.10;;
92;SDS011;16232;48.800;9.002;2023-04-03T02:10:11;4.17;;;2.97;;
92;SDS011;16232;48.800;9.002;2023-04-03T02:12:39;4.07;;;3.50;;
92;SDS011;16232;48.800;9.002;2023-04-03T02:15:06;3.57;;;2.90;;
92;SDS011;16232;48.800;9.002;2023-04-03T02:17:34;4.30;;;3.10;;
92;SDS011;16232;48.800;9.002;2023-04-03T02:20:02;3.87;;;3.43;;
92;SDS011;16232;48.800;9.002;2023-04-03T02:22:29;6.13;;;3.37;;
92;SDS011;16232;48.800;9.002;2023-04-03T02:24:58;4.47;;;3.50;;
92;SDS011;16232;48.800;9.002;2023-04-03T02:27:26;3.90;;;3.10;;
92;SDS011;16232;48.800;9.002;2023-04-03T02:29:53;3.80;;;3.40;;
92;SDS011;16232;48.800;9.002;2023-04-03T02:32:21;4.87;;;3.43;;
92;SDS011;16232;48.800;9.002;2023-04-03T02:34:48;3.83;;;3.43;;
92;SDS011;16232;48.800;9.002;2023-04-03T02:37:16;3.57;;;3.23;;
92;SDS011;16232;48.800;9.002;2023-04-03T02:39:43;5.90;;;3.30;;
92;SDS011;16232;48.800;9.002;2023-04-03T02:42:12;4.63;;;3.10;;
92;SDS011;16232;48.800;9.002;2023-04-03T02:44:39;5.43;;;3.13;;
92;SDS011;16232;48.800;9.002;2023-04-03T02:47:07;5.07;;;3.57;;
92;SDS011;16232;48.800;9.002;2023-04-03T02:49:34;4.30;;;3.20;;
92;SDS011;16232;48.800;9.002;2023-04-03T02:52:02;3.83;;;3.30;;
92;SDS011;16232;48.800;9.002;2023-04-03T02:54:29;4.47;;;3.50;;
92;SDS011;16232;48.800;9.002;2023-04-03T02:56:57;3.83;;;3.40;;
92;SDS011;16232;48.800;9.002;2023-04-03T02:59:26;5.10;;;3.43;;
92;SDS011;16232;48.800;9.002;2023-04-03T03:01:53;3.70;;;3.40;;
92;SDS011;16232;48.800;9.002;2023-04-03T03:04:21;5.50;;;3.33;;
92;SDS011;16232;48.800;9.002;2023-04-03T03:06:49;6.17;;;4.00;;
92;SDS011;16232;48.800;9.002;2023-04-03T03:09:17;4.20;;;3.40;;
92;SDS011;16232;48.800;9.002;2023-04-03T03:11:45;4.33;;;3.37;;
92;SDS011;16232;48.800;9.002;2023-04-03T03:14:12;3.53;;;3.23;;
92;SDS011;16232;48.800;9.002;2023-04-03T03:16:41;3.53;;;3.23;;
92;SDS011;16232;48.800;9.002;2023-04-03T03:19:08;4.37;;;3.40;;
92;SDS011;16232;48.800;9.002;2023-04-03T03:21:36;4.20;;;3.47;;
92;SDS011;16232;48.800;9.002;2023-04-03T03:24:04;4.73;;;3.27;;
92;SDS011;16232;48.800;9.002;2023-04-03T03:26:31;3.53;;;3.23;;
92;SDS011;16232;48.800;9.002;2023-04-03T03:28:59;3.63;;;3.33;;
92;SDS011;16232;48.800;9.002;2023-04-03T03:31:26;8.00;;;5.77;;
92;SDS011;16232;48.800;9.002;2023-04-03T03:33:55;3.90;;;3.50;;
92;SDS011;16232;48.800;9.002;2023-04-03T03:36:22;4.70;;;3.43;;
92;SDS011;16232;48.800;9.002;2023-04-03T03:38:50;4.00;;;3.43;;
92;SDS011;16232;48.800;9.002;2023-04-03T03:41:18;3.00;;;2.70;;
92;SDS011;16232;48.800;9.002;2023-04-03T03:43:45;4.63;;;3.67;;
92;SDS011;16232;48.800;9.002;2023-04-03T03:46:13;4.03;;;3.50;;
92;SDS011;16232;48.800;9.002;2023-04-03T03:48:40;4.37;;;3.23;;
92;SDS011;16232;48.800;9.002;2023-04-03T03:51:09;4.37;;;3.10;;
92;SDS011;16232;48.800;9.002;2023-04-03T03:53:37;3.67;;;3.23;;
92;SDS011;16232;48.800;9.002;2023-04-03T03:56:04;2.80;;;2.60;;
92;SDS011;16232;48.800;9.002;2023-04-03T03:58:32;3.47;;;3.10;;
92;SDS011;16232;48.800;9.002;2023-04-03T04:01:00;5.50;;;3.23;;
92;SDS011;16232;48.800;9.002;2023-04-03T04:03:28;3.40;;;2.17;;
92;SDS011;16232;48.800;9.002;2023-04-03T04:05:55;3.87;;;3.23;;
92;SDS011;16232;48.800;9.002;2023-04-03T04:08:24;4.53;;;3.23;;
92;SDS011;16232;48.800;9.002;2023-04-03T04:10:52;3.63;;;2.80;;
92;SDS011;16232;48.800;9.002;2023-04-03T04:13:20;3.73;;;2.80;;
92;SDS011;16232;48.800;9.002;2023-04-03T04:15:47;3.23;;;2.93;;
92;SDS011;16232;48.800;9.002;2023-04-03T04:18:15;5.77;;;2.83;;
92;SDS011;16232;48.800;9.002;2023-04-03T04:20:44;3.37;;;2.50;;
92;SDS011;16232;48.800;9.002;2023-04-03T04:23:12;3.77;;;2.50;;
92;SDS011;16232;48.800;9.002;2023-04-03T04:25:40;4.50;;;2.80;;
92;SDS011;16232;48.800;9.002;2023-04-03T04:28:08;4.60;;;2.63;;
92;SDS011;16232;48.800;9.002;2023-04-03T04:30:35;3.27;;;2.63;;
92;SDS011;16232;48.800;9.002;2023-04-03T04:33:03;4.10;;;2.43;;
92;SDS011;16232;48.800;9.002;2023-04-03T04:35:31;2.70;;;2.50;;
92;SDS011;16232;48.800;9.002;2023-04-03T04:37:59;3.90;;;3.20;;
92;SDS011;16232;48.800;9.002;2023-04-03T04:40:27;2.80;;;2.47;;
92;SDS011;16232;48.800;9.002;2023-04-03T04:42:56;3.87;;;2.90;;
92;SDS011;16232;48.800;9.002;2023-04-03T04:45:24;3.20;;;2.67;;
92;SDS011;16232;48.800;9.002;2023-04-03T04:47:51;5.97;;;3.00;;
92;SDS011;16232;48.800;9.002;2023-04-03T04:50:19;4.20;;;3.00;;
92;SDS011;16232;48.800;9.002;2023-04-03T04:52:46;3.17;;;2.60;;
92;SDS011;16232;48.800;9.002;2023-04-03T04:55:14;3.47;;;2.83;;
92;SDS011;16232;48.800;9.002;2023-04-03T04:57:41;4.57;;;3.10;;
92;SDS011;16232;48.800;9.002;2023-04-03T05:00:11;3.07;;;2.70;;
92;SDS011;16232;48.800;9.002;2023-04-03T05:02:39;3.43;;;2.60;;
92;SDS011;16232;48.800;9.002;2023-04-03T05:05:07;3.30;;;2.73;;
92;SDS011;16232;48.800;9.002;2023-04-03T05:07:34;4.77;;;3.20;;
92;SDS011;16232;48.800;9.002;2023-04-03T05:10:02;2.93;;;2.57;;
92;SDS011;16232;48.800;9.002;2023-04-03T05:12:30;2.50;;;2.30;;
92;SDS011;16232;48.800;9.002;2023-04-03T05:14:58;3.33;;;2.50;;
92;SDS011;16232;48.800;9.002;2023-04-03T05:17:27;4.13;;;2.63;;
92;SDS011;16232;48.800;9.002;2023-04-03T05:19:54;3.27;;;2.27;;
92;SDS011;16232;48.800;9.002;2023-04-03T05:22:22;5.60;;;3.00;;
92;SDS011;16232;48.800;9.002;2023-04-03T05:24:49;2.77;;;2.20;;
92;SDS011;16232;48.800;9.002;2023-04-03T05:27:17;4.70;;;2.83;;
92;SDS011;16232;48.800;9.002;2023-04-03T05:29:44;3.77;;;2.27;;
92;SDS011;16232;48.800;9.002;2023-04-03T05:32:12;4.67;;;2.63;;
92;SDS011;16232;48.800;9.002;2023-04-03T05:34:41;4.33;;;2.63;;
92;SDS011;16232;48.800;9.002;2023-04-03T05:37:08;3.63;;;2.40;;
92;SDS011;16232;48.800;9.002;2023-04-03T05:39:36;2.70;;;2.20;;
92;SDS011;16232;48.800;9.002;2023-04-03T05:42:05;4.50;;;2.23;;
92;SDS011;16232;48.800;9.002;2023-04-03T05:44:33;2.57;;;2.37;;
92;SDS011;16232;48.800;9.002;2023-04-03T05:47:01;3.10;;;2.33;;
92;SDS011;16232;48.800;9.002;2023-04-03T05:49:28;3.47;;;2.67;;
92;SDS011;16232;48.800;9.002;2023-04-03T05:51:57;3.70;;;2.47;;
92;SDS011;16232;48.800;9.002;2023-04-03T05:54:25;2.43;;;2.20;;
92;SDS011;16232;48.800;9.002;2023-04-03T05:56:53;3.27;;;2.53;;
92;SDS011;16232;48.800;9.002;2023-04-03T05:59:21;3.90;;;2.50;;
92;SDS011;16232;48.800;9.002;2023-04-03T06:01:48;2.97;;;2.63;;
92;SDS011;16232;48.800;9.002;2023-04-03T06:04:16;6.93;;;2.80;;
92;SDS011;16232;48.800;9.002;2023-04-03T06:06:45;3.60;;;2.43;;
92;SDS011;16232;48.800;9.002;2023-04-03T06:09:14;2.60;;;2.33;;
92;SDS011;16232;48.800;9.002;2023-04-03T06:11:42;3.17;;;2.50;;
92;SDS011;16232;48.800;9.002;2023-04-03T06:14:10;3.30;;;2.50;;
92;SDS011;16232;48.800;9.002;2023-04-03T06:16:37;3.30;;;2.50;;
92;SDS011;16232;48.800;9.002;2023-04-03T06:19:05;3.10;;;2.50;;
92;SDS011;16232;48.800;9.002;2023-04-03T06:21:33;3.37;;;2.73;;
92;SDS011;16232;48.800;9.002;2023-04-03T06:24:00;3.40;;;2.30;;
92;SDS011;16232;48.800;9.002;2023-04-03T06:26:29;3.33;;;2.50;;
92;SDS011;16232;48.800;9.002;2023-04-03T06:28:57;4.43;;;2.83;;
92;SDS011;16232;48.800;9.002;2023-04-03T06:31:24;2.93;;;2.47;;
92;SDS011;16232;48.800;9.002;2023-04-03T06:33:52;3.00;;;2.67;;
92;SDS011;16232;48.800;9.002;2023-04-03T06:36:20;2.90;;;2.60;;
92;SDS011;16232;48.800;9.002;2023-04-03T06:38:48;2.83;;;2.40;;
92;SDS011;16232;48.800;9.002;2023-04-03T06:41:16;5.10;;;3.23;;
92;SDS011;16232;48.800;9.002;2023-04-03T06:43:45;4.80;;;3.07;;
92;SDS011;16232;48.800;9.002;2023-04-03T06:46:13;3.60;;;2.10;;
92;SDS011;16232;48.800;9.002;2023-04-03T06:48:41;4.97;;;2.70;;
92;SDS011;16232;48.800;9.002;2023-04-03T06:51:13;5.20;;;2.40;;
92;SDS011;16232;48.800;9.002;2023-04-03T06:53:42;3.43;;;2.50;;
92;SDS011;16232;48.800;9.002;2023-04-03T06:56:09;7.53;;;2.83;;
92;SDS011;16232;48.800;9.002;2023-04-03T06:58:37;2.40;;;2.20;;
92;SDS011;16232;48.800;9.002;2023-04-03T07:01:06;3.10;;;2.73;;
92;SDS011;16232;48.800;9.002;2023-04-03T07:03:34;2.30;;;2.10;;
92;SDS011;16232;48.800;9.002;2023-04-03T07:06:02;3.77;;;2.37;;
92;SDS011;16232;48.800;9.002;2023-04-03T07:08:29;5.80;;;2.30;;
92;SDS011;16232;48.800;9.002;2023-04-03T07:10:57;3.10;;;2.40;;
92;SDS011;16232;48.800;9.002;2023-04-03T07:13:24;3.60;;;2.53;;
92;SDS011;16232;48.800;9.002;2023-04-03T07:15:52;3.33;;;2.30;;
92;SDS011;16232;48.800;9.002;2023-04-03T07:18:21;2.80;;;2.30;;
92;SDS011;16232;48.800;9.002;2023-04-03T07:20:49;4.73;;;2.70;;
92;SDS011;16232;48.800;9.002;2023-04-03T07:23:16;5.00;;;3.03;;
92;SDS011;16232;48.800;9.002;2023-04-03T07:25:44;3.57;;;3.10;;
92;SDS011;16232;48.800;9.002;2023-04-03T07:28:11;3.07;;;2.70;;
92;SDS011;16232;48.800;9.002;2023-04-03T07:30:43;4.43;;;2.37;;
92;SDS011;16232;48.800;9.002;2023-04-03T07:33:11;2.50;;;2.30;;
92;SDS011;16232;48.800;9.002;2023-04-03T07:35:40;3.33;;;2.63;;
92;SDS011;16232;48.800;9.002;2023-04-03T07:38:08;4.50;;;2.50;;
92;SDS011;16232;48.800;9.002;2023-04-03T07:40:35;4.47;;;2.50;;
92;SDS011;16232;48.800;9.002;2023-04-03T07:43:03;3.80;;;2.37;;
92;SDS011;16232;48.800;9.002;2023-04-03T07:45:31;4.27;;;2.67;;
92;SDS011;16232;48.800;9.002;2023-04-03T07:47:59;2.60;;;2.40;;
92;SDS011;16232;48.800;9.002;2023-04-03T07:50:27;4.63;;;2.67;;
92;SDS011;16232;48.800;9.002;2023-04-03T07:52:57;4.17;;;2.37;;
92;SDS011;16232;48.800;9.002;2023-04-03T07:55:24;3.13;;;2.20;;
92;SDS011;16232;48.800;9.002;2023-04-03T07:57:52;5.57;;;2.83;;
92;SDS011;16232;48.800;9.002;2023-04-03T08:00:20;5.13;;;2.47;;
92;SDS011;16232;48.800;9.002;2023-04-03T08:02:48;4.03;;;2.50;;
92;SDS011;16232;48.800;9.002;2023-04-03T08:05:17;3.30;;;2.40;;
92;SDS011;16232;48.800;9.002;2023-04-03T08:07:44;3.77;;;2.43;;
92;SDS011;16232;48.800;9.002;2023-04-03T08:10:13;2.73;;;2.50;;
92;SDS011;16232;48.800;9.002;2023-04-03T08:12:41;3.37;;;2.60;;
92;SDS011;16232;48.800;9.002;2023-04-03T08:15:09;4.53;;;2.50;;
92;SDS011;16232;48.800;9.002;2023-04-03T08:17:36;4.20;;;2.40;;
92;SDS011;16232;48.800;9.002;2023-04-03T08:20:05;4.07;;;2.90;;
92;SDS011;16232;48.800;9.002;2023-04-03T08:22:33;3.90;;;2.60;;
92;SDS011;16232;48.800;9.002;2023-04-03T08:25:00;3.77;;;2.97;;
92;SDS011;16232;48.800;9.002;2023-04-03T08:27:29;4.03;;;2.77;;
92;SDS011;16232;48.800;9.002;2023-04-03T08:29:57;6.03;;;2.80;;
92;SDS011;16232;48.800;9.002;2023-04-03T08:32:25;5.33;;;2.53;;
92;SDS011;16232;48.800;9.002;2023-04-03T08:34:52;4.70;;;2.60;;
92;SDS011;16232;48.800;9.002;2023-04-03T08:37:20;5.50;;;2.70;;
92;SDS011;16232;48.800;9.002;2023-04-03T08:39:47;4.50;;;2.60;;
92;SDS011;16232;48.800;9.002;2023-04-03T08:42:16;4.67;;;2.37;;
92;SDS011;16232;48.800;9.002;2023-04-03T08:44:50;4.20;;;2.30;;
92;SDS011;16232;48.800;9.002;2023-04-03T08:47:21;4.70;;;2.77;;
92;SDS011;16232;48.800;9.002;2023-04-03T08:49:51;3.23;;;2.30;;
92;SDS011;16232;48.800;9.002;2023-04-03T08:52:20;3.97;;;2.50;;
92;SDS011;16232;48.800;9.002;2023-04-03T08:54:51;3.97;;;2.20;;
92;SDS011;16232;48.800;9.002;2023-04-03T08:57:20;4.40;;;2.50;;
92;SDS011;16232;48.800;9.002;2023-04-03T08:59:53;4.63;;;2.60;;
92;SDS011;16232;48.800;9.002;2023-04-03T09:02:24;5.17;;;2.70;;
92;SDS011;16232;48.800;9.002;2023-04-03T09:04:53;4.63;;;2.80;;
92;SDS011;16232;48.800;9.002;2023-04-03T09:07:22;4.60;;;2.47;;
92;SDS011;16232;48.800;9.002;2023-04-03T09:09:51;4.93;;;2.37;;
92;SDS011;16232;48.800;9.002;2023-04-03T09:12:20;5.47;;;2.60;;
92;SDS011;16232;48.800;9.002;2023-04-03T09:14:56;3.03;;;2.13;;
92;SDS011;16232;48.800;9.002;2023-04-03T09:17:29;2.83;;;2.50;;
92;SDS011;16232;48.800;9.002;2023-04-03T09:20:01;3.93;;;2.70;;
92;SDS011;16232;48.800;9.002;2023-04-03T09:22:31;2.70;;;2.30;;
92;SDS011;16232;48.800;9.002;2023-04-03T09:25:01;4.20;;;3.57;;
92;SDS011;16232;48.800;9.002;2023-04-03T09:27:29;5.17;;;2.50;;
92;SDS011;16232;48.800;9.002;2023-04-03T09:29:58;3.77;;;2.77;;
92;SDS011;16232;48.800;9.002;2023-04-03T09:32:26;3.57;;;2.47;;
92;SDS011;16232;48.800;9.002;2023-04-03T09:34:56;3.00;;;2.47;;
92;SDS011;16232;48.800;9.002;2023-04-03T09:37:34;3.27;;;2.43;;
92;SDS011;16232;48.800;9.002;2023-04-03T09:40:02;4.53;;;2.00;;
92;SDS011;16232;48.800;9.002;2023-04-03T09:42:31;3.30;;;2.20;;
92;SDS011;16232;48.800;9.002;2023-04-03T09:45:00;3.73;;;2.20;;
92;SDS011;16232;48.800;9.002;2023-04-03T09:47:29;3.97;;;1.90;;
92;SDS011;16232;48.800;9.002;2023-04-03T09:52:56;3.57;;;2.07;;
92;SDS011;16232;48.800;9.002;2023-04-03T09:55:23;4.40;;;2.20;;
92;SDS011;16232;48.800;9.002;2023-04-03T09:57:54;4.17;;;2.33;;
92;SDS011;16232;48.800;9.002;2023-04-03T10:00:25;5.27;;;2.40;;
92;SDS011;16232;48.800;9.002;2023-04-03T10:02:54;5.23;;;2.40;;
92;SDS011;16232;48.800;9.002;2023-04-03T10:05:32;2.30;;;1.90;;
92;SDS011;16232;48.800;9.002;2023-04-03T10:08:07;3.20;;;1.80;;
92;SDS011;16232;48.800;9.002;2023-04-03T10:10:35;4.07;;;1.83;;
92;SDS011;16232;48.800;9.002;2023-04-03T10:13:03;2.57;;;1.60;;
92;SDS011;16232;48.800;9.002;2023-04-03T10:15:34;4.23;;;2.17;;
92;SDS011;16232;48.800;9.002;2023-04-03T10:18:04;5.67;;;1.90;;
92;SDS011;16232;48.800;9.002;2023-04-03T10:20:35;2.20;;;1.90;;
92;SDS011;16232;48.800;9.002;2023-04-03T10:23:15;2.93;;;1.73;;
92;SDS011;16232;48.800;9.002;2023-04-03T10:25:47;4.93;;;1.93;;
92;SDS011;16232;48.800;9.002;2023-04-03T10:28:18;3.60;;;1.90;;
92;SDS011;16232;48.800;9.002;2023-04-03T10:30:50;2.60;;;1.90;;
92;SDS011;16232;48.800;9.002;2023-04-03T10:33:27;2.17;;;1.80;;
92;SDS011;16232;48.800;9.002;2023-04-03T10:36:02;2.70;;;1.87;;
92;SDS011;16232;48.800;9.002;2023-04-03T10:38:37;2.90;;;1.63;;
92;SDS011;16232;48.800;9.002;2023-04-03T10:41:07;2.17;;;1.63;;
92;SDS011;16232;48.800;9.002;2023-04-03T10:43:36;2.97;;;1.50;;
92;SDS011;16232;48.800;9.002;2023-04-03T10:46:09;2.17;;;1.70;;
92;SDS011;16232;48.800;9.002;2023-04-03T10:48:44;4.60;;;1.50;;
92;SDS011;16232;48.800;9.002;2023-04-03T10:51:23;2.33;;;1.67;;
92;SDS011;16232;48.800;9.002;2023-04-03T10:53:55;3.10;;;1.67;;
92;SDS011;16232;48.800;9.002;2023-04-03T10:56:27;2.63;;;1.83;;
92;SDS011;16232;48.800;9.002;2023-04-03T10:58:58;3.40;;;1.97;;
92;SDS011;16232;48.800;9.002;2023-04-03T11:01:30;4.00;;;1.57;;
92;SDS011;16232;48.800;9.002;2023-04-03T11:03:59;3.30;;;1.47;;
92;SDS011;16232;48.800;9.002;2023-04-03T11:06:30;5.47;;;1.70;;
92;SDS011;16232;48.800;9.002;2023-04-03T11:09:00;3.73;;;1.73;;
92;SDS011;16232;48.800;9.002;2023-04-03T11:11:32;1.87;;;1.50;;
92;SDS011;16232;48.800;9.002;2023-04-03T11:14:02;3.10;;;1.77;;
92;SDS011;16232;48.800;9.002;2023-04-03T11:16:33;3.40;;;2.07;;
92;SDS011;16232;48.800;9.002;2023-04-03T11:19:03;4.83;;;1.70;;
92;SDS011;16232;48.800;9.002;2023-04-03T11:21:33;2.43;;;1.80;;
92;SDS011;16232;48.800;9.002;2023-04-03T11:24:02;3.03;;;1.90;;
92;SDS011;16232;48.800;9.002;2023-04-03T11:26:35;2.17;;;1.33;;
92;SDS011;16232;48.800;9.002;2023-04-03T11:29:05;2.77;;;1.83;;
92;SDS011;16232;48.800;9.002;2023-04-03T11:31:38;3.63;;;1.70;;
92;SDS011;16232;48.800;9.002;2023-04-03T11:34:13;3.10;;;1.70;;
92;SDS011;16232;48.800;9.002;2023-04-03T11:36:45;3.03;;;1.27;;
92;SDS011;16232;48.800;9.002;2023-04-03T11:39:18;1.90;;;1.80;;
92;SDS011;16232;48.800;9.002;2023-04-03T11:41:47;2.63;;;1.70;;
92;SDS011;16232;48.800;9.002;2023-04-03T11:47:03;1.57;;;1.47;;
92;SDS011;16232;48.800;9.002;2023-04-03T11:54:59;2.20;;;1.40;;
92;SDS011;16232;48.800;9.002;2023-04-03T11:57:46;2.00;;;1.80;;
92;SDS011;16232;48.800;9.002;2023-04-03T12:03:02;5.60;;;1.63;;
92;SDS011;16232;48.800;9.002;2023-04-03T12:05:29;2.83;;;1.57;;
92;SDS011;16232;48.800;9.002;2023-04-03T12:08:16;2.93;;;1.57;;
92;SDS011;16232;48.800;9.002;2023-04-03T12:13:31;2.90;;;1.27;;
92;SDS011;16232;48.800;9.002;2023-04-03T12:15:59;3.20;;;1.40;;
92;SDS011;16232;48.800;9.002;2023-04-03T12:18:41;1.93;;;1.53;;
92;SDS011;16232;48.800;9.002;2023-04-03T12:21:09;1.97;;;1.50;;
92;SDS011;16232;48.800;9.002;2023-04-03T12:26:20;2.13;;;1.50;;
92;SDS011;16232;48.800;9.002;2023-04-03T12:28:48;2.93;;;1.40;;
92;SDS011;16232;48.800;9.002;2023-04-03T12:31:18;3.70;;;1.57;;
92;SDS011;16232;48.800;9.002;2023-04-03T12:36:38;3.10;;;1.57;;
92;SDS011;16232;48.800;9.002;2023-04-03T12:42:05;4.70;;;1.60;;
92;SDS011;16232;48.800;9.002;2023-04-03T12:44:45;3.57;;;1.50;;
92;SDS011;16232;48.800;9.002;2023-04-03T12:47:22;3.00;;;1.53;;
92;SDS011;16232;48.800;9.002;2023-04-03T12:49:50;1.03;;;0.90;;
92;SDS011;16232;48.800;9.002;2023-04-03T12:52:25;2.90;;;1.50;;
92;SDS011;16232;48.800;9.002;2023-04-03T12:54:55;2.10;;;1.60;;
92;SDS011;16232;48.800;9.002;2023-04-03T12:57:23;3.03;;;1.70;;
92;SDS011;16232;48.800;9.002;2023-04-03T12:59:51;2.90;;;1.63;;
92;SDS011;16232;48.800;9.002;2023-04-03T13:02:23;2.67;;;1.43;;
92;SDS011;16232;48.800;9.002;2023-04-03T13:04:51;1.97;;;1.50;;
92;SDS011;16232;48.800;9.002;2023-04-03T13:07:19;3.40;;;1.73;;
92;SDS011;16232;48.800;9.002;2023-04-03T13:09:56;2.37;;;1.30;;
92;SDS011;16232;48.800;9.002;2023-04-03T13:12:24;3.03;;;1.63;;
92;SDS011;16232;48.800;9.002;2023-04-03T13:14:52;2.60;;;1.40;;
92;SDS011;16232;48.800;9.002;2023-04-03T13:17:20;3.57;;;2.27;;
92;SDS011;16232;48.800;9.002;2023-04-03T13:19:47;4.13;;;1.63;;
92;SDS011;16232;48.800;9.002;2023-04-03T13:22:20;4.47;;;2.43;;
92;SDS011;16232;48.800;9.002;2023-04-03T13:24:49;3.47;;;1.80;;
92;SDS011;16232;48.800;9.002;2023-04-03T13:27:19;2.07;;;1.53;;
92;SDS011;16232;48.800;9.002;2023-04-03T13:29:49;2.93;;;1.30;;
92;SDS011;16232;48.800;9.002;2023-04-03T13:32:18;1.77;;;1.50;;
92;SDS011;16232;48.800;9.002;2023-04-03T13:34:46;2.70;;;1.30;;
92;SDS011;16232;48.800;9.002;2023-04-03T13:37:21;2.40;;;1.40;;
92;SDS011;16232;48.800;9.002;2023-04-03T13:39:56;3.47;;;1.73;;
92;SDS011;16232;48.800;9.002;2023-04-03T13:42:26;3.33;;;1.90;;
92;SDS011;16232;48.800;9.002;2023-04-03T13:45:08;2.60;;;1.40;;
92;SDS011;16232;48.800;9.002;2023-04-03T13:47:38;3.47;;;1.70;;
92;SDS011;16232;48.800;9.002;2023-04-03T13:50:13;3.87;;;1.53;;
92;SDS011;16232;48.800;9.002;2023-04-03T13:52:42;2.20;;;1.57;;
92;SDS011;16232;48.800;9.002;2023-04-03T13:55:18;4.43;;;1.70;;
92;SDS011;16232;48.800;9.002;2023-04-03T13:57:52;4.70;;;1.60;;
92;SDS011;16232;48.800;9.002;2023-04-03T14:00:21;2.33;;;1.20;;
92;SDS011;16232;48.800;9.002;2023-04-03T14:02:48;2.23;;;1.53;;
92;SDS011;16232;48.800;9.002;2023-04-03T14:05:16;4.37;;;1.93;;
92;SDS011;16232;48.800;9.002;2023-04-03T14:07:46;2.13;;;1.20;;
92;SDS011;16232;48.800;9.002;2023-04-03T14:10:13;3.27;;;1.80;;
92;SDS011;16232;48.800;9.002;2023-04-03T14:12:41;3.10;;;1.50;;
92;SDS011;16232;48.800;9.002;2023-04-03T14:15:16;2.60;;;1.87;;
92;SDS011;16232;48.800;9.002;2023-04-03T14:17:43;2.30;;;1.50;;
92;SDS011;16232;48.800;9.002;2023-04-03T14:20:14;2.23;;;1.50;;
92;SDS011;16232;48.800;9.002;2023-04-03T14:22:41;3.83;;;1.60;;
92;SDS011;16232;48.800;9.002;2023-04-03T14:25:09;3.07;;;1.70;;
92;SDS011;16232;48.800;9.002;2023-04-03T14:27:37;2.70;;;1.80;;
92;SDS011;16232;48.800;9.002;2023-04-03T14:30:07;3.27;;;1.83;;
92;SDS011;16232;48.800;9.002;2023-04-03T14:32:37;2.03;;;1.83;;
92;SDS011;16232;48.800;9.002;2023-04-03T14:35:05;2.60;;;1.57;;
92;SDS011;16232;48.800;9.002;2023-04-03T14:37:32;1.63;;;1.53;;
92;SDS011;16232;48.800;9.002;2023-04-03T14:40:01;2.40;;;1.53;;
92;SDS011;16232;48.800;9.002;2023-04-03T14:42:30;2.83;;;1.67;;
92;SDS011;16232;48.800;9.002;2023-04-03T14:44:58;4.87;;;1.67;;
92;SDS011;16232;48.800;9.002;2023-04-03T14:47:26;2.03;;;1.50;;
92;SDS011;16232;48.800;9.002;2023-04-03T14:49:55;2.23;;;1.50;;
92;SDS011;16232;48.800;9.002;2023-04-03T14:52:24;2.60;;;1.67;;
92;SDS011;16232;48.800;9.002;2023-04-03T14:54:52;2.77;;;1.73;;
92;SDS011;16232;48.800;9.002;2023-04-03T14:57:21;2.00;;;1.80;;
92;SDS011;16232;48.800;9.002;2023-04-03T14:59:49;2.87;;;1.60;;
92;SDS011;16232;48.800;9.002;2023-04-03T15:05:04;2.80;;;1.60;;
92;SDS011;16232;48.800;9.002;2023-04-03T15:07:34;4.10;;;1.97;;
92;SDS011;16232;48.800;9.002;2023-04-03T15:10:02;2.10;;;1.53;;
92;SDS011;16232;48.800;9.002;2023-04-03T15:12:30;3.33;;;1.73;;
92;SDS011;16232;48.800;9.002;2023-04-03T15:14:58;3.00;;;1.80;;
92;SDS011;16232;48.800;9.002;2023-04-03T15:17:25;4.23;;;1.60;;
92;SDS011;16232;48.800;9.002;2023-04-03T15:19:53;1.97;;;1.53;;
92;SDS011;16232;48.800;9.002;2023-04-03T15:22:21;2.80;;;1.43;;
92;SDS011;16232;48.800;9.002;2023-04-03T15:24:49;3.97;;;1.27;;
92;SDS011;16232;48.800;9.002;2023-04-03T15:27:16;1.93;;;1.60;;
92;SDS011;16232;48.800;9.002;2023-04-03T15:29:44;3.00;;;1.70;;
92;SDS011;16232;48.800;9.002;2023-04-03T15:32:12;1.67;;;1.47;;
92;SDS011;16232;48.800;9.002;2023-04-03T15:34:39;2.07;;;1.50;;
92;SDS011;16232;48.800;9.002;2023-04-03T15:37:06;2.47;;;1.40;;
92;SDS011;16232;48.800;9.002;2023-04-03T15:39:35;4.17;;;1.97;;
92;SDS011;16232;48.800;9.002;2023-04-03T15:42:03;3.00;;;1.83;;
92;SDS011;16232;48.800;9.002;2023-04-03T15:44:31;1.97;;;1.53;;
92;SDS011;16232;48.800;9.002;2023-04-03T15:46:59;2.43;;;1.47;;
92;SDS011;16232;48.800;9.002;2023-04-03T15:49:27;1.77;;;1.33;;
92;SDS011;16232;48.800;9.002;2023-04-03T15:51:55;3.63;;;2.30;;
92;SDS011;16232;48.800;9.002;2023-04-03T15:54:22;2.13;;;1.30;;
92;SDS011;16232;48.800;9.002;2023-04-03T15:56:52;3.57;;;1.60;;
92;SDS011;16232;48.800;9.002;2023-04-03T15:59:19;2.97;;;1.80;;
92;SDS011;16232;48.800;9.002;2023-04-03T16:01:47;2.47;;;2.07;;
92;SDS011;16232;48.800;9.002;2023-04-03T16:04:15;3.77;;;1.80;;
92;SDS011;16232;48.800;9.002;2023-04-03T16:06:43;3.93;;;1.73;;
92;SDS011;16232;48.800;9.002;2023-04-03T16:09:10;2.13;;;1.67;;